createdAt,value
2017-08-06T00:01:24.388Z,99.40
2017-08-06T00:03:52.665Z,99.10
2017-08-06T00:06:20.928Z,99.20
2017-08-06T00:08:49.237Z,98.90
2017-08-06T00:11:17.508Z,99.30
2017-08-06T00:13:45.812Z,99.30
2017-08-06T00:16:14.081Z,99.10
2017-08-06T00:18:42.353Z,98.50
2017-08-06T00:21:10.632Z,98.60
2017-08-06T00:23:38.896Z,98.30
2017-08-06T00:26:07.215Z,98.20
2017-08-06T00:28:35.493Z,98.10
2017-08-06T00:31:03.753Z,97.90
2017-08-06T00:33:32.049Z,97.80
2017-08-06T00:36:00.319Z,98.00
2017-08-06T00:38:28.592Z,97.80
2017-08-06T00:40:56.858Z,98.20
2017-08-06T00:43:25.148Z,98.10
2017-08-06T00:45:52.640Z,98.10
2017-08-06T00:48:20.945Z,98.40
2017-08-06T00:50:49.206Z,98.80
2017-08-06T00:53:17.486Z,98.80
2017-08-06T00:55:45.764Z,98.80
2017-08-06T00:58:14.021Z,98.70
2017-08-06T01:00:42.330Z,98.50
2017-08-06T01:03:10.596Z,98.30
2017-08-06T01:05:38.873Z,98.40
2017-08-06T01:08:07.193Z,98.40
2017-08-06T01:10:34.688Z,98.70
2017-08-06T01:13:02.962Z,98.10
2017-08-06T01:15:30.503Z,98.10
2017-08-06T01:17:58.760Z,98.20
2017-08-06T01:20:27.055Z,98.30
2017-08-06T01:22:55.328Z,98.30
2017-08-06T01:25:23.620Z,98.30
2017-08-06T01:27:51.927Z,98.40
2017-08-06T01:30:20.192Z,98.40
2017-08-06T01:32:48.471Z,98.30
2017-08-06T01:35:16.771Z,98.20
2017-08-06T01:37:45.068Z,98.20
2017-08-06T01:40:13.339Z,98.10
2017-08-06T01:42:41.604Z,98.10
2017-08-06T01:45:09.920Z,98.20
2017-08-06T01:47:38.200Z,98.30
2017-08-06T01:50:06.476Z,98.10
2017-08-06T01:52:34.769Z,98.10
2017-08-06T01:55:03.026Z,98.00
2017-08-06T01:57:31.346Z,98.20
2017-08-06T01:59:59.618Z,98.10
2017-08-06T02:02:27.870Z,98.10
2017-08-06T02:04:56.181Z,98.30
2017-08-06T02:07:24.440Z,98.50
2017-08-06T02:09:52.688Z,98.60
2017-08-06T02:12:20.991Z,98.60
2017-08-06T02:14:49.303Z,98.50
2017-08-06T02:17:17.555Z,98.40
2017-08-06T02:19:45.856Z,98.60
2017-08-06T02:22:14.150Z,98.60
2017-08-06T02:24:42.416Z,98.80
2017-08-06T02:27:10.721Z,98.70
2017-08-06T02:29:38.984Z,98.60
2017-08-06T02:32:07.257Z,98.50
2017-08-06T02:34:35.540Z,98.80
2017-08-06T02:37:03.802Z,98.60
2017-08-06T02:39:31.337Z,98.60
2017-08-06T02:41:59.601Z,98.60
2017-08-06T02:44:27.860Z,98.80
2017-08-06T02:46:56.166Z,99.00
2017-08-06T02:49:24.424Z,99.00
2017-08-06T02:51:52.694Z,99.20
2017-08-06T02:54:20.993Z,99.00
2017-08-06T02:56:49.243Z,99.10
2017-08-06T02:59:17.525Z,99.10
2017-08-06T03:01:45.842Z,99.10
2017-08-06T03:04:15.052Z,99.40
2017-08-06T03:06:43.318Z,99.40
2017-08-06T03:09:11.638Z,99.70
2017-08-06T03:11:39.903Z,99.60
2017-08-06T03:14:08.164Z,99.90
2017-08-06T03:16:36.470Z,99.90
2017-08-06T03:19:04.739Z,99.70
2017-08-06T03:21:33.025Z,99.90
2017-08-06T03:24:01.304Z,99.90
2017-08-06T03:26:29.557Z,99.70
2017-08-06T03:28:57.853Z,99.50
2017-08-06T03:31:26.116Z,99.90
2017-08-06T03:33:54.386Z,99.90
2017-08-06T03:36:22.684Z,99.90
2017-08-06T03:38:50.944Z,99.90
2017-08-06T03:41:19.208Z,99.90
2017-08-06T03:43:47.525Z,99.90
2017-08-06T03:46:15.801Z,99.90
2017-08-06T03:48:44.062Z,99.90
2017-08-06T03:51:12.359Z,99.90
2017-08-06T03:53:44.060Z,99.70
2017-08-06T03:56:12.344Z,99.90
2017-08-06T03:58:39.863Z,99.90
2017-08-06T04:01:08.129Z,99.90
2017-08-06T04:03:36.445Z,99.60
2017-08-06T04:06:04.719Z,99.70
2017-08-06T04:08:32.983Z,99.70
2017-08-06T04:11:01.302Z,99.70
2017-08-06T04:13:29.583Z,99.90
2017-08-06T04:15:57.847Z,99.80
2017-08-06T04:18:26.142Z,99.70
2017-08-06T04:20:54.399Z,99.80
2017-08-06T04:23:22.662Z,99.90
2017-08-06T04:25:50.955Z,99.90
2017-08-06T04:28:19.214Z,99.90
2017-08-06T04:30:47.480Z,99.90
2017-08-06T04:33:15.802Z,99.90
2017-08-06T04:35:44.068Z,99.90
2017-08-06T04:38:12.337Z,99.90
2017-08-06T04:40:40.637Z,99.90
2017-08-06T04:43:08.899Z,99.90
2017-08-06T04:45:37.154Z,99.90
2017-08-06T04:48:06.355Z,99.90
2017-08-06T04:50:34.655Z,99.90
2017-08-06T04:53:02.914Z,99.90
2017-08-06T04:55:31.187Z,99.90
2017-08-06T04:57:59.491Z,99.90
2017-08-06T05:00:27.753Z,99.90
2017-08-06T05:02:56.021Z,99.90
2017-08-06T05:05:24.308Z,99.90
2017-08-06T05:07:52.577Z,99.90
2017-08-06T05:10:20.855Z,99.90
2017-08-06T05:12:49.132Z,99.90
2017-08-06T05:15:17.449Z,99.90
2017-08-06T05:17:45.763Z,99.90
2017-08-06T05:20:13.272Z,99.90
2017-08-06T05:22:41.569Z,99.90
2017-08-06T05:25:09.835Z,99.90
2017-08-06T05:27:38.091Z,99.90
2017-08-06T05:30:06.403Z,99.90
2017-08-06T05:32:34.668Z,99.90
2017-08-06T05:35:02.936Z,99.90
2017-08-06T05:37:31.231Z,99.90
2017-08-06T05:39:59.487Z,99.90
2017-08-06T05:42:27.783Z,99.90
2017-08-06T05:44:56.045Z,99.90
2017-08-06T05:47:24.344Z,99.90
2017-08-06T05:49:52.598Z,99.90
2017-08-06T05:52:20.896Z,99.90
2017-08-06T05:54:48.403Z,99.90
2017-08-06T05:57:16.712Z,99.90
2017-08-06T05:59:44.977Z,99.90
2017-08-06T06:02:13.239Z,99.90
2017-08-06T06:04:41.540Z,99.90
2017-08-06T06:07:09.807Z,99.90
2017-08-06T06:09:38.089Z,99.90
2017-08-06T06:12:06.388Z,99.90
2017-08-06T06:14:34.662Z,99.90
2017-08-06T06:17:02.991Z,99.90
2017-08-06T06:19:31.258Z,99.90
2017-08-06T06:21:59.565Z,99.90
2017-08-06T06:24:27.831Z,99.90
2017-08-06T06:26:56.120Z,99.90
2017-08-06T06:29:24.439Z,99.90
2017-08-06T06:31:52.726Z,99.90
2017-08-06T06:34:21.004Z,99.90
2017-08-06T06:36:49.292Z,99.90
2017-08-06T06:39:17.562Z,99.90
2017-08-06T06:41:45.860Z,99.90
2017-08-06T06:44:14.169Z,99.90
2017-08-06T06:46:42.440Z,99.90
2017-08-06T06:49:10.710Z,99.90
2017-08-06T06:51:38.999Z,99.90
2017-08-06T06:54:07.260Z,99.90
2017-08-06T06:56:35.561Z,99.90
2017-08-06T06:59:03.824Z,99.90
2017-08-06T07:01:32.128Z,99.90
2017-08-06T07:04:00.383Z,99.90
2017-08-06T07:06:28.647Z,99.90
2017-08-06T07:08:56.941Z,99.90
2017-08-06T07:11:25.233Z,99.90
2017-08-06T07:13:53.564Z,99.90
2017-08-06T07:16:21.837Z,99.90
2017-08-06T07:18:50.163Z,99.90
2017-08-06T07:21:18.431Z,99.90
2017-08-06T07:23:46.702Z,99.90
2017-08-06T07:26:15.011Z,99.90
2017-08-06T07:28:43.276Z,99.90
2017-08-06T07:31:10.814Z,99.90
2017-08-06T07:33:39.108Z,99.90
2017-08-06T07:36:07.376Z,99.90
2017-08-06T07:38:35.639Z,99.90
2017-08-06T07:41:03.931Z,99.90
2017-08-06T07:43:32.215Z,99.90
2017-08-06T07:46:00.474Z,99.90
2017-08-06T07:48:28.788Z,99.90
2017-08-06T07:50:57.059Z,99.90
2017-08-06T07:53:25.347Z,99.90
2017-08-06T07:55:53.655Z,99.90
2017-08-06T07:58:21.147Z,99.90
2017-08-06T08:00:49.418Z,99.80
2017-08-06T08:03:17.735Z,99.40
2017-08-06T08:05:46.048Z,99.40
2017-08-06T08:08:14.312Z,99.30
2017-08-06T08:10:42.580Z,99.40
2017-08-06T08:13:10.869Z,98.80
2017-08-06T08:15:39.132Z,98.40
2017-08-06T08:18:07.402Z,98.30
2017-08-06T08:20:35.716Z,98.60
2017-08-06T08:23:03.979Z,97.70
2017-08-06T08:25:32.244Z,96.50
2017-08-06T08:28:00.552Z,96.70
2017-08-06T08:30:28.811Z,97.60
2017-08-06T08:32:57.064Z,96.70
2017-08-06T08:35:25.367Z,97.80
2017-08-06T08:37:53.632Z,97.10
2017-08-06T08:40:21.891Z,97.50
2017-08-06T08:42:50.184Z,96.30
2017-08-06T08:45:18.457Z,96.20
2017-08-06T08:47:45.955Z,96.20
2017-08-06T08:50:14.258Z,97.00
2017-08-06T08:52:42.511Z,97.10
2017-08-06T08:55:10.773Z,96.10
2017-08-06T08:57:39.063Z,95.70
2017-08-06T09:00:07.356Z,95.50
2017-08-06T09:02:35.617Z,95.40
2017-08-06T09:05:03.904Z,94.90
2017-08-06T09:07:31.423Z,95.00
2017-08-06T09:09:59.697Z,93.60
2017-08-06T09:12:27.986Z,92.80
2017-08-06T09:14:56.279Z,92.80
2017-08-06T09:17:24.537Z,92.40
2017-08-06T09:19:52.791Z,92.10
2017-08-06T09:22:21.084Z,92.60
2017-08-06T09:24:49.353Z,91.70
2017-08-06T09:27:17.644Z,91.50
2017-08-06T09:29:45.908Z,91.90
2017-08-06T09:32:14.175Z,86.40
2017-08-06T09:34:42.502Z,88.10
2017-08-06T09:37:10.773Z,87.60
2017-08-06T09:39:39.028Z,84.10
2017-08-06T09:42:07.324Z,86.70
2017-08-06T09:44:35.581Z,88.70
2017-08-06T09:47:03.861Z,88.50
2017-08-06T09:49:32.147Z,84.10
2017-08-06T09:52:00.447Z,89.10
2017-08-06T09:54:27.942Z,88.90
2017-08-06T09:56:56.208Z,91.20
2017-08-06T09:59:24.504Z,88.30
2017-08-06T10:01:52.768Z,84.80
2017-08-06T10:04:21.049Z,84.10
2017-08-06T10:06:52.236Z,84.80
2017-08-06T10:09:21.284Z,86.80
2017-08-06T10:11:49.571Z,84.20
2017-08-06T10:14:17.835Z,86.20
2017-08-06T10:16:46.128Z,82.90
2017-08-06T10:19:14.384Z,83.80
2017-08-06T10:21:42.634Z,82.80
2017-08-06T10:24:10.938Z,80.30
2017-08-06T10:26:39.196Z,83.30
2017-08-06T10:29:07.458Z,84.50
2017-08-06T10:31:37.719Z,80.00
2017-08-06T10:34:05.980Z,81.30
2017-08-06T10:36:34.235Z,79.50
2017-08-06T10:39:02.527Z,79.00
2017-08-06T10:41:31.692Z,80.50
2017-08-06T10:43:59.995Z,83.90
2017-08-06T10:46:28.252Z,79.90
2017-08-06T10:48:56.506Z,80.50
2017-08-06T10:51:24.817Z,80.10
2017-08-06T10:53:53.062Z,83.80
2017-08-06T10:56:21.325Z,80.90
2017-08-06T10:58:49.635Z,76.90
2017-08-06T11:01:17.898Z,79.30
2017-08-06T11:03:46.162Z,82.30
2017-08-06T11:06:14.479Z,78.50
2017-08-06T11:08:41.974Z,78.50
2017-08-06T11:11:10.230Z,77.60
2017-08-06T11:13:38.541Z,76.80
2017-08-06T11:16:06.801Z,75.60
2017-08-06T11:18:35.052Z,74.00
2017-08-06T11:21:02.582Z,74.00
2017-08-06T11:23:30.886Z,73.30
2017-08-06T11:25:59.148Z,74.70
2017-08-06T11:28:27.420Z,73.20
2017-08-06T11:30:55.720Z,72.20
2017-08-06T11:33:23.984Z,73.20
2017-08-06T11:35:52.287Z,75.70
2017-08-06T11:38:20.563Z,76.40
2017-08-06T11:40:50.787Z,73.20
2017-08-06T11:43:19.055Z,70.60
2017-08-06T11:45:47.319Z,73.70
2017-08-06T11:48:15.636Z,72.50
2017-08-06T11:50:44.877Z,73.10
2017-08-06T11:53:13.138Z,74.60
2017-08-06T11:55:41.419Z,73.10
2017-08-06T11:58:09.701Z,75.50
2017-08-06T12:00:37.991Z,74.50
2017-08-06T12:03:06.288Z,69.30
2017-08-06T12:05:34.552Z,68.90
2017-08-06T12:08:02.863Z,66.50
2017-08-06T12:10:31.114Z,68.10
2017-08-06T12:13:00.292Z,71.90
2017-08-06T12:15:28.633Z,74.40
2017-08-06T12:17:56.898Z,72.40
2017-08-06T12:20:25.157Z,67.10
2017-08-06T12:22:53.431Z,68.40
2017-08-06T12:25:21.693Z,68.90
2017-08-06T12:27:49.991Z,69.80
2017-08-06T12:30:18.250Z,71.30
2017-08-06T12:32:46.516Z,69.40
2017-08-06T12:35:14.801Z,72.10
2017-08-06T12:37:43.061Z,73.90
2017-08-06T12:40:11.391Z,69.80
2017-08-06T12:42:39.648Z,72.10
2017-08-06T12:45:07.919Z,67.70
2017-08-06T12:47:36.225Z,74.70
2017-08-06T12:50:04.533Z,70.50
2017-08-06T12:52:32.797Z,65.60
2017-08-06T12:55:01.088Z,66.10
2017-08-06T12:57:28.579Z,66.10
2017-08-06T12:59:56.840Z,71.90
2017-08-06T13:02:25.135Z,71.40
2017-08-06T13:04:53.395Z,73.00
2017-08-06T13:07:21.656Z,73.90
2017-08-06T13:09:49.973Z,73.90
2017-08-06T13:12:18.238Z,71.80
2017-08-06T13:14:46.499Z,68.20
2017-08-06T13:17:14.814Z,70.50
2017-08-06T13:19:43.078Z,71.60
2017-08-06T13:22:11.341Z,67.30
2017-08-06T13:24:39.625Z,68.50
2017-08-06T13:27:07.900Z,67.20
2017-08-06T13:29:36.185Z,66.20
2017-08-06T13:32:04.455Z,67.90
2017-08-06T13:34:32.747Z,68.10
2017-08-06T13:37:01.082Z,69.20
2017-08-06T13:39:29.352Z,66.30
2017-08-06T13:41:57.619Z,64.70
2017-08-06T13:44:25.941Z,67.00
2017-08-06T13:46:54.253Z,67.10
2017-08-06T13:49:22.518Z,67.50
2017-08-06T13:51:50.792Z,69.50
2017-08-06T13:54:19.103Z,65.90
2017-08-06T13:56:47.355Z,67.90
2017-08-06T13:59:15.630Z,67.80
2017-08-06T14:01:43.938Z,67.10
2017-08-06T14:04:12.229Z,66.60
2017-08-06T14:06:40.503Z,66.30
2017-08-06T14:09:08.789Z,63.70
2017-08-06T14:11:37.088Z,67.80
2017-08-06T14:14:05.355Z,67.90
2017-08-06T14:16:33.664Z,67.40
2017-08-06T14:19:01.927Z,64.60
2017-08-06T14:21:30.189Z,65.50
2017-08-06T14:23:58.485Z,65.70
2017-08-06T14:26:26.760Z,68.20
2017-08-06T14:28:55.049Z,65.00
2017-08-06T14:31:23.328Z,66.60
2017-08-06T14:33:51.590Z,64.70
2017-08-06T14:36:19.875Z,65.20
2017-08-06T14:38:48.177Z,68.60
2017-08-06T14:41:16.488Z,67.80
2017-08-06T14:43:44.754Z,68.20
2017-08-06T14:46:13.019Z,67.60
2017-08-06T14:48:41.323Z,62.10
2017-08-06T14:51:09.597Z,60.50
2017-08-06T14:53:37.899Z,63.00
2017-08-06T14:56:06.155Z,64.10
2017-08-06T14:58:34.411Z,67.40
2017-08-06T15:01:02.711Z,68.40
2017-08-06T15:03:30.981Z,69.10
2017-08-06T15:05:59.245Z,63.40
2017-08-06T15:08:27.562Z,68.80
2017-08-06T15:10:56.043Z,68.70
2017-08-06T15:13:24.309Z,63.30
2017-08-06T15:15:51.805Z,63.30
2017-08-06T15:18:20.097Z,66.30
2017-08-06T15:20:48.396Z,63.00
2017-08-06T15:23:16.659Z,61.20
2017-08-06T15:25:44.925Z,59.20
2017-08-06T15:28:13.216Z,59.70
2017-08-06T15:30:40.767Z,59.80
2017-08-06T15:33:09.029Z,58.10
2017-08-06T15:35:37.291Z,58.10
2017-08-06T15:38:05.624Z,59.30
2017-08-06T15:40:33.894Z,58.80
2017-08-06T15:43:02.163Z,63.10
2017-08-06T15:45:30.452Z,59.70
2017-08-06T15:47:58.708Z,60.90
2017-08-06T15:50:26.999Z,64.00
2017-08-06T15:52:55.278Z,65.40
2017-08-06T15:55:23.544Z,60.40
2017-08-06T15:57:51.836Z,62.90
2017-08-06T16:00:20.122Z,64.10
2017-08-06T16:02:48.388Z,59.70
2017-08-06T16:05:16.805Z,61.30
2017-08-06T16:07:45.063Z,61.70
2017-08-06T16:10:13.323Z,62.70
2017-08-06T16:12:41.608Z,58.70
2017-08-06T16:15:09.910Z,60.70
2017-08-06T16:17:38.188Z,60.20
2017-08-06T16:20:05.707Z,60.00
2017-08-06T16:22:34.027Z,61.40
2017-08-06T16:25:02.299Z,61.10
2017-08-06T16:27:30.562Z,61.20
2017-08-06T16:29:58.860Z,63.90
2017-08-06T16:32:27.443Z,66.70
2017-08-06T16:34:55.990Z,61.20
2017-08-06T16:37:24.260Z,60.50
2017-08-06T16:39:52.526Z,62.50
2017-08-06T16:42:20.836Z,62.20
2017-08-06T16:44:49.100Z,62.90
2017-08-06T16:47:17.364Z,61.00
2017-08-06T16:49:45.655Z,62.60
2017-08-06T16:52:13.941Z,61.00
2017-08-06T16:54:42.219Z,60.80
2017-08-06T16:57:10.480Z,60.20
2017-08-06T16:59:38.776Z,62.80
2017-08-06T17:02:07.043Z,61.30
2017-08-06T17:04:35.345Z,60.20
2017-08-06T17:07:03.645Z,61.70
2017-08-06T17:09:31.919Z,65.80
2017-08-06T17:12:01.163Z,63.80
2017-08-06T17:14:29.424Z,63.60
2017-08-06T17:16:57.694Z,62.20
2017-08-06T17:19:25.960Z,60.80
2017-08-06T17:21:55.133Z,62.60
2017-08-06T17:24:23.424Z,63.60
2017-08-06T17:26:51.739Z,62.40
2017-08-06T17:29:20.060Z,65.40
2017-08-06T17:31:48.321Z,62.10
2017-08-06T17:34:16.633Z,60.60
2017-08-06T17:36:44.887Z,62.00
2017-08-06T17:39:13.144Z,64.30
2017-08-06T17:41:41.442Z,63.60
2017-08-06T17:44:09.697Z,65.30
2017-08-06T17:46:37.973Z,66.20
2017-08-06T17:49:06.272Z,63.60
2017-08-06T17:51:34.533Z,67.80
2017-08-06T17:54:02.834Z,66.70
2017-08-06T17:56:31.179Z,65.90
2017-08-06T17:58:59.451Z,66.80
2017-08-06T18:01:27.740Z,66.40
2017-08-06T18:03:56.041Z,65.80
2017-08-06T18:06:24.342Z,67.80
2017-08-06T18:08:52.609Z,65.70
2017-08-06T18:11:20.879Z,69.30
2017-08-06T18:13:49.186Z,70.60
2017-08-06T18:16:17.449Z,69.30
2017-08-06T18:18:45.709Z,68.20
2017-08-06T18:21:14.029Z,73.10
2017-08-06T18:23:42.295Z,72.30
2017-08-06T18:26:10.559Z,73.70
2017-08-06T18:28:38.873Z,75.30
2017-08-06T18:31:07.144Z,75.60
2017-08-06T18:33:35.420Z,76.60
2017-08-06T18:36:03.718Z,77.00
2017-08-06T18:38:31.982Z,77.00
2017-08-06T18:41:00.251Z,77.70
2017-08-06T18:43:28.571Z,77.40
2017-08-06T18:45:56.837Z,78.10
2017-08-06T18:48:25.090Z,78.30
2017-08-06T18:50:53.389Z,78.90
2017-08-06T18:53:21.655Z,80.10
2017-08-06T18:55:49.924Z,79.80
2017-08-06T18:58:18.228Z,80.30
2017-08-06T19:00:46.500Z,80.60
2017-08-06T19:03:14.761Z,80.70
2017-08-06T19:05:43.059Z,81.10
2017-08-06T19:08:11.325Z,80.90
2017-08-06T19:10:39.595Z,81.60
2017-08-06T19:13:07.888Z,81.50
2017-08-06T19:15:36.187Z,82.70
2017-08-06T19:18:05.361Z,83.20
2017-08-06T19:20:33.651Z,83.80
2017-08-06T19:23:01.924Z,84.80
2017-08-06T19:25:30.214Z,85.60
2017-08-06T19:27:58.474Z,85.70
2017-08-06T19:30:26.776Z,85.60
2017-08-06T19:32:55.045Z,85.30
2017-08-06T19:35:23.335Z,85.80
2017-08-06T19:37:51.591Z,85.30
2017-08-06T19:40:19.100Z,85.20
2017-08-06T19:42:47.393Z,85.50
2017-08-06T19:45:15.660Z,86.00
2017-08-06T19:47:43.961Z,86.60
2017-08-06T19:50:11.443Z,86.50
2017-08-06T19:52:39.706Z,86.50
2017-08-06T19:55:07.995Z,86.10
2017-08-06T19:57:36.259Z,86.60
2017-08-06T20:00:04.564Z,86.40
2017-08-06T20:02:32.831Z,87.30
2017-08-06T20:05:01.101Z,87.00
2017-08-06T20:07:29.396Z,87.00
2017-08-06T20:09:57.663Z,87.50
2017-08-06T20:12:25.925Z,88.40
2017-08-06T20:14:54.213Z,88.30
2017-08-06T20:17:22.467Z,89.20
2017-08-06T20:19:50.775Z,89.80
2017-08-06T20:22:19.037Z,89.60
2017-08-06T20:24:47.293Z,89.60
2017-08-06T20:27:15.600Z,89.80
2017-08-06T20:29:43.855Z,90.10
2017-08-06T20:32:12.120Z,90.40
2017-08-06T20:34:40.421Z,90.60
2017-08-06T20:37:08.680Z,90.70
2017-08-06T20:39:36.956Z,90.70
2017-08-06T20:42:05.263Z,90.80
2017-08-06T20:44:33.532Z,91.20
2017-08-06T20:47:01.814Z,92.00
2017-08-06T20:49:30.121Z,91.60
2017-08-06T20:51:58.386Z,91.80
2017-08-06T20:54:26.640Z,91.70
2017-08-06T20:56:54.916Z,91.80
2017-08-06T20:59:23.177Z,92.10
2017-08-06T21:01:51.467Z,92.10
2017-08-06T21:04:19.724Z,92.20
2017-08-06T21:06:47.997Z,92.20
2017-08-06T21:09:16.283Z,92.30
2017-08-06T21:11:44.570Z,92.50
2017-08-06T21:14:12.869Z,92.40
2017-08-06T21:16:41.155Z,92.60
2017-08-06T21:19:09.416Z,92.70
2017-08-06T21:21:37.695Z,92.90
2017-08-06T21:24:05.950Z,93.00
2017-08-06T21:26:34.238Z,93.30
2017-08-06T21:29:02.548Z,93.60
2017-08-06T21:31:30.803Z,93.80
2017-08-06T21:33:59.053Z,93.60
2017-08-06T21:36:27.347Z,93.60
2017-08-06T21:38:55.625Z,93.80
2017-08-06T21:41:23.873Z,94.00
2017-08-06T21:43:53.087Z,94.20
2017-08-06T21:46:21.356Z,94.20
2017-08-06T21:48:49.651Z,94.50
2017-08-06T21:51:17.914Z,94.60
2017-08-06T21:53:46.207Z,94.60
2017-08-06T21:56:14.459Z,95.00
2017-08-06T21:58:42.765Z,94.90
2017-08-06T22:01:11.023Z,95.00
2017-08-06T22:03:39.286Z,94.90
2017-08-06T22:06:07.579Z,94.90
2017-08-06T22:08:35.848Z,95.00
2017-08-06T22:11:04.144Z,95.40
2017-08-06T22:13:32.409Z,95.10
2017-08-06T22:16:00.676Z,95.20
2017-08-06T22:18:28.968Z,95.20
2017-08-06T22:20:57.215Z,95.20
2017-08-06T22:23:25.499Z,95.30
2017-08-06T22:25:53.754Z,95.30
2017-08-06T22:28:22.056Z,95.40
2017-08-06T22:30:50.315Z,95.50
2017-08-06T22:33:18.563Z,95.50
2017-08-06T22:35:46.885Z,95.60
2017-08-06T22:38:15.140Z,95.60
2017-08-06T22:40:43.443Z,95.50
2017-08-06T22:43:11.701Z,95.60
2017-08-06T22:45:39.992Z,95.70
2017-08-06T22:48:07.472Z,95.70
2017-08-06T22:50:35.773Z,95.80
2017-08-06T22:53:04.025Z,95.80
2017-08-06T22:55:32.325Z,95.90
2017-08-06T22:58:00.585Z,96.00
2017-08-06T23:00:28.849Z,95.90
2017-08-06T23:02:57.152Z,95.90
2017-08-06T23:05:25.403Z,95.80
2017-08-06T23:07:53.673Z,95.80
2017-08-06T23:10:21.967Z,96.00
2017-08-06T23:12:50.233Z,96.20
2017-08-06T23:15:18.530Z,96.20
2017-08-06T23:17:46.800Z,96.00
2017-08-06T23:20:15.099Z,96.00
2017-08-06T23:22:43.357Z,96.00
2017-08-06T23:25:11.628Z,96.20
2017-08-06T23:27:39.941Z,96.00
2017-08-06T23:30:08.211Z,96.20
2017-08-06T23:32:36.499Z,96.30
2017-08-06T23:35:04.036Z,96.30
2017-08-06T23:37:32.336Z,96.40
2017-08-06T23:40:00.592Z,96.40
2017-08-06T23:42:28.895Z,96.50
2017-08-06T23:44:57.168Z,96.50
2017-08-06T23:47:25.438Z,96.40
2017-08-06T23:49:53.733Z,96.40
2017-08-06T23:52:21.991Z,96.40
2017-08-06T23:54:50.296Z,96.30
2017-08-06T23:57:18.545Z,96.80
2017-08-06T23:59:46.804Z,96.30
